createdAt,value
2023-05-21T00:02:22.542Z,20.90
2023-05-21T00:04:49.172Z,20.90
2023-05-21T00:07:15.773Z,20.90
2023-05-21T00:09:42.417Z,20.90
2023-05-21T00:12:09.318Z,20.90
2023-05-21T00:14:36.040Z,20.90
2023-05-21T00:17:02.696Z,20.90
2023-05-21T00:19:29.504Z,20.90
2023-05-21T00:21:57.576Z,20.90
2023-05-21T00:24:24.204Z,20.90
2023-05-21T00:26:51.063Z,20.90
2023-05-21T00:29:17.695Z,20.90
2023-05-21T00:31:44.453Z,20.90
2023-05-21T00:34:11.111Z,20.90
2023-05-21T00:36:37.995Z,20.90
2023-05-21T00:39:05.076Z,20.90
2023-05-21T00:41:31.755Z,20.90
2023-05-21T00:44:00.319Z,20.90
2023-05-21T00:46:28.629Z,20.90
2023-05-21T00:48:57.962Z,20.80
2023-05-21T00:51:25.045Z,20.80
2023-05-21T00:53:52.937Z,20.90
2023-05-21T00:56:23.538Z,20.90
2023-05-21T00:58:54.488Z,20.80
2023-05-21T01:01:21.146Z,20.80
2023-05-21T01:03:48.575Z,20.80
2023-05-21T01:06:16.110Z,20.80
2023-05-21T01:08:42.976Z,20.80
2023-05-21T01:11:10.479Z,20.80
2023-05-21T01:13:39.392Z,20.80
2023-05-21T01:16:06.758Z,20.80
2023-05-21T01:18:35.240Z,20.80
2023-05-21T01:21:02.413Z,20.80
2023-05-21T01:23:29.085Z,20.80
2023-05-21T01:25:55.817Z,20.80
2023-05-21T01:28:22.411Z,20.80
2023-05-21T01:30:49.213Z,20.80
2023-05-21T01:33:24.204Z,20.80
2023-05-21T01:35:54.084Z,20.80
2023-05-21T01:38:26.026Z,20.80
2023-05-21T01:41:03.911Z,20.80
2023-05-21T01:43:38.299Z,20.80
2023-05-21T01:46:05.629Z,20.80
2023-05-21T01:48:32.303Z,20.80
2023-05-21T01:51:01.215Z,20.80
2023-05-21T01:53:27.869Z,20.80
2023-05-21T01:55:54.738Z,20.80
2023-05-21T01:58:22.822Z,20.80
2023-05-21T02:00:51.161Z,20.80
2023-05-21T02:03:18.519Z,20.80
2023-05-21T02:05:45.444Z,20.80
2023-05-21T02:08:12.887Z,20.80
2023-05-21T02:10:39.494Z,20.70
2023-05-21T02:13:06.392Z,20.70
2023-05-21T02:15:34.942Z,20.70
2023-05-21T02:18:02.398Z,20.70
2023-05-21T02:20:29.225Z,20.70
2023-05-21T02:22:55.853Z,20.70
2023-05-21T02:25:22.503Z,20.70
2023-05-21T02:27:52.846Z,20.70
2023-05-21T02:30:19.543Z,20.70
2023-05-21T02:32:48.842Z,20.70
2023-05-21T02:35:15.910Z,20.70
2023-05-21T02:37:44.088Z,20.70
2023-05-21T02:40:11.691Z,20.70
2023-05-21T02:42:40.116Z,20.70
2023-05-21T02:45:07.947Z,20.70
2023-05-21T02:47:34.582Z,20.70
2023-05-21T02:50:01.960Z,20.70
2023-05-21T02:52:28.811Z,20.70
2023-05-21T02:54:55.391Z,20.70
2023-05-21T02:57:22.092Z,20.70
2023-05-21T02:59:48.699Z,20.70
2023-05-21T03:02:15.463Z,20.70
2023-05-21T03:04:46.140Z,20.70
2023-05-21T03:07:17.965Z,20.70
2023-05-21T03:09:44.586Z,20.70
2023-05-21T03:12:11.595Z,20.70
2023-05-21T03:14:38.445Z,20.70
2023-05-21T03:17:06.060Z,20.70
2023-05-21T03:19:36.431Z,20.70
2023-05-21T03:22:03.686Z,20.70
2023-05-21T03:24:30.651Z,20.70
2023-05-21T03:26:57.561Z,20.70
2023-05-21T03:29:24.229Z,20.70
2023-05-21T03:31:52.614Z,20.70
2023-05-21T03:34:20.163Z,20.70
2023-05-21T03:36:47.129Z,20.70
2023-05-21T03:39:14.109Z,20.70
2023-05-21T03:41:40.949Z,20.70
2023-05-21T03:44:07.885Z,20.70
2023-05-21T03:46:34.556Z,20.60
2023-05-21T03:49:01.388Z,20.60
2023-05-21T03:51:27.985Z,20.60
2023-05-21T03:53:54.592Z,20.60
2023-05-21T03:56:21.699Z,20.60
2023-05-21T03:58:48.365Z,20.60
2023-05-21T04:01:14.962Z,20.60
2023-05-21T04:03:41.863Z,20.60
2023-05-21T04:06:10.154Z,20.60
2023-05-21T04:08:38.023Z,20.60
2023-05-21T04:11:04.697Z,20.60
2023-05-21T04:13:31.301Z,20.60
2023-05-21T04:15:57.913Z,20.60
2023-05-21T04:18:26.156Z,20.60
2023-05-21T04:20:53.745Z,20.60
2023-05-21T04:23:23.494Z,20.60
2023-05-21T04:25:50.950Z,20.60
2023-05-21T04:28:21.110Z,20.60
2023-05-21T04:30:47.906Z,20.60
2023-05-21T04:33:18.272Z,20.60
2023-05-21T04:35:46.230Z,20.60
2023-05-21T04:38:12.819Z,20.60
2023-05-21T04:40:40.622Z,20.60
2023-05-21T04:43:08.245Z,20.60
2023-05-21T04:45:35.270Z,20.60
2023-05-21T04:48:02.926Z,20.60
2023-05-21T04:50:30.693Z,20.60
2023-05-21T04:52:58.835Z,20.60
2023-05-21T04:55:26.010Z,20.60
2023-05-21T04:57:53.164Z,20.60
2023-05-21T05:00:19.933Z,20.60
2023-05-21T05:02:46.731Z,20.60
2023-05-21T05:05:13.465Z,20.60
2023-05-21T05:07:40.171Z,20.60
2023-05-21T05:10:07.345Z,20.60
2023-05-21T05:12:33.972Z,20.60
2023-05-21T05:15:00.664Z,20.60
2023-05-21T05:17:27.599Z,20.60
2023-05-21T05:19:54.251Z,20.60
2023-05-21T05:22:20.880Z,20.60
2023-05-21T05:24:47.530Z,20.60
2023-05-21T05:27:14.235Z,20.60
2023-05-21T05:29:40.852Z,20.60
2023-05-21T05:32:07.764Z,20.60
2023-05-21T05:34:34.420Z,20.60
2023-05-21T05:37:02.737Z,20.60
2023-05-21T05:39:29.357Z,20.60
2023-05-21T05:41:55.986Z,20.60
2023-05-21T05:44:22.548Z,20.60
2023-05-21T05:46:49.170Z,20.60
2023-05-21T05:49:15.861Z,20.60
2023-05-21T05:51:42.469Z,20.60
2023-05-21T05:54:09.104Z,20.60
2023-05-21T05:56:35.709Z,20.60
2023-05-21T05:59:02.337Z,20.60
2023-05-21T06:01:29.251Z,20.70
2023-05-21T06:03:57.253Z,20.60
2023-05-21T06:06:24.003Z,20.60
2023-05-21T06:08:50.755Z,20.70
2023-05-21T06:11:18.859Z,20.70
2023-05-21T06:13:45.673Z,20.70
2023-05-21T06:16:12.720Z,20.70
2023-05-21T06:18:39.355Z,20.70
2023-05-21T06:21:06.218Z,20.70
2023-05-21T06:23:32.915Z,20.70
2023-05-21T06:25:59.520Z,20.70
2023-05-21T06:28:26.149Z,20.70
2023-05-21T06:30:52.871Z,20.70
2023-05-21T06:33:19.551Z,20.70
2023-05-21T06:35:46.310Z,20.70
2023-05-21T06:38:13.033Z,20.80
2023-05-21T06:40:39.650Z,20.80
2023-05-21T06:43:06.272Z,20.70
2023-05-21T06:45:32.934Z,20.80
2023-05-21T06:47:59.614Z,20.80
2023-05-21T06:50:26.318Z,20.80
2023-05-21T06:52:52.934Z,20.80
2023-05-21T06:55:19.547Z,20.80
2023-05-21T06:57:46.150Z,20.80
2023-05-21T07:00:13.243Z,20.80
2023-05-21T07:02:39.957Z,20.80
2023-05-21T07:05:06.845Z,20.90
2023-05-21T07:07:34.966Z,20.90
2023-05-21T07:10:01.674Z,20.90
2023-05-21T07:12:28.368Z,20.80
2023-05-21T07:14:55.359Z,20.90
2023-05-21T07:17:22.739Z,20.90
2023-05-21T07:19:49.351Z,20.80
2023-05-21T07:22:16.187Z,20.90
2023-05-21T07:24:42.873Z,20.90
2023-05-21T07:27:24.655Z,20.90
2023-05-21T07:29:52.242Z,20.90
2023-05-21T07:32:18.868Z,20.90
2023-05-21T07:34:45.687Z,20.90
2023-05-21T07:37:12.987Z,20.90
2023-05-21T07:39:39.867Z,21.00
2023-05-21T07:42:06.504Z,21.00
2023-05-21T07:44:33.173Z,21.00
2023-05-21T07:46:59.802Z,21.00
2023-05-21T07:49:26.441Z,21.00
2023-05-21T07:51:53.075Z,21.00
2023-05-21T07:54:19.790Z,21.00
2023-05-21T07:56:46.418Z,21.00
2023-05-21T07:59:14.628Z,21.00
2023-05-21T08:01:41.974Z,21.00
2023-05-21T08:04:08.972Z,21.00
2023-05-21T08:06:37.512Z,21.00
2023-05-21T08:09:06.204Z,21.00
2023-05-21T08:11:33.276Z,21.00
2023-05-21T08:13:59.991Z,21.00
2023-05-21T08:16:26.884Z,21.00
2023-05-21T08:18:54.240Z,21.00
2023-05-21T08:21:20.943Z,21.00
2023-05-21T08:23:47.670Z,21.10
2023-05-21T08:26:17.387Z,21.10
2023-05-21T08:28:44.157Z,21.10
2023-05-21T08:31:10.907Z,21.10
2023-05-21T08:33:38.551Z,21.10
2023-05-21T08:36:05.996Z,21.10
2023-05-21T08:38:32.662Z,21.10
2023-05-21T08:40:59.608Z,21.10
2023-05-21T08:43:29.557Z,21.10
2023-05-21T08:45:57.387Z,21.10
2023-05-21T08:48:24.492Z,21.10
2023-05-21T08:50:55.077Z,21.10
2023-05-21T08:53:28.295Z,21.10
2023-05-21T08:55:56.267Z,21.10
2023-05-21T08:58:23.165Z,21.20
2023-05-21T09:00:49.923Z,21.20
2023-05-21T09:03:16.912Z,21.20
2023-05-21T09:05:44.348Z,21.20
2023-05-21T09:08:24.564Z,21.20
2023-05-21T09:10:51.893Z,21.20
2023-05-21T09:13:18.945Z,21.20
2023-05-21T09:15:45.902Z,21.20
2023-05-21T09:18:12.823Z,21.30
2023-05-21T09:20:41.731Z,21.30
2023-05-21T09:23:17.030Z,21.30
2023-05-21T09:25:47.546Z,21.30
2023-05-21T09:28:14.967Z,21.30
2023-05-21T09:30:45.707Z,21.30
2023-05-21T09:33:12.654Z,21.30
2023-05-21T09:35:46.497Z,21.30
2023-05-21T09:38:13.148Z,21.30
2023-05-21T09:40:43.609Z,21.30
2023-05-21T09:43:13.535Z,21.30
2023-05-21T09:45:50.126Z,21.30
2023-05-21T09:48:16.903Z,21.40
2023-05-21T09:50:43.454Z,21.40
2023-05-21T09:53:16.234Z,21.40
2023-05-21T09:55:43.461Z,21.40
2023-05-21T09:58:10.655Z,21.40
2023-05-21T10:00:37.564Z,21.40
2023-05-21T10:03:09.431Z,21.40
2023-05-21T10:05:36.394Z,21.40
2023-05-21T10:08:04.129Z,21.40
2023-05-21T10:10:31.692Z,21.40
2023-05-21T10:13:06.840Z,21.50
2023-05-21T10:15:36.284Z,21.50
2023-05-21T10:18:03.438Z,21.50
2023-05-21T10:20:30.393Z,21.50
2023-05-21T10:22:57.657Z,21.50
2023-05-21T10:25:25.645Z,21.50
2023-05-21T10:27:54.239Z,21.50
2023-05-21T10:30:21.516Z,21.50
2023-05-21T10:32:48.829Z,21.50
2023-05-21T10:35:16.371Z,21.50
2023-05-21T10:37:46.479Z,21.50
2023-05-21T10:40:13.528Z,21.50
2023-05-21T10:42:52.078Z,21.50
2023-05-21T10:45:36.542Z,21.60
2023-05-21T10:48:23.269Z,21.60
2023-05-21T10:51:10.359Z,21.70
2023-05-21T10:53:46.381Z,21.70
2023-05-21T10:56:16.066Z,21.70
2023-05-21T10:58:51.677Z,21.70
2023-05-21T11:01:21.609Z,21.80
2023-05-21T11:03:51.070Z,21.80
2023-05-21T11:06:25.260Z,21.90
2023-05-21T11:08:55.321Z,21.90
2023-05-21T11:11:45.205Z,21.90
2023-05-21T11:14:38.917Z,21.90
2023-05-21T11:17:14.938Z,21.90
2023-05-21T11:19:41.752Z,21.90
2023-05-21T11:22:21.656Z,21.90
2023-05-21T11:24:50.854Z,21.90
2023-05-21T11:27:34.650Z,21.90
2023-05-21T11:30:08.713Z,21.90
2023-05-21T11:32:40.057Z,22.00
2023-05-21T11:35:07.069Z,22.00
2023-05-21T11:37:34.736Z,22.00
2023-05-21T11:40:17.746Z,22.00
2023-05-21T11:42:48.474Z,22.00
2023-05-21T11:45:17.354Z,22.00
2023-05-21T11:47:44.206Z,22.00
2023-05-21T11:50:14.691Z,22.00
2023-05-21T11:52:44.329Z,22.10
2023-05-21T11:55:11.349Z,22.10
2023-05-21T11:57:41.563Z,22.00
2023-05-21T12:00:14.159Z,22.10
2023-05-21T12:02:44.511Z,22.10
2023-05-21T12:05:13.163Z,22.10
2023-05-21T12:07:40.006Z,22.10
2023-05-21T12:10:08.050Z,22.10
2023-05-21T12:12:49.960Z,22.10
2023-05-21T12:15:20.681Z,22.10
2023-05-21T12:17:49.574Z,22.10
2023-05-21T12:20:16.726Z,22.10
2023-05-21T12:22:44.810Z,22.20
2023-05-21T12:25:12.059Z,22.20
2023-05-21T12:27:38.850Z,22.20
2023-05-21T12:30:05.920Z,22.10
2023-05-21T12:32:32.565Z,22.20
2023-05-21T12:34:59.271Z,22.20
2023-05-21T12:37:32.633Z,22.20
2023-05-21T12:40:00.185Z,22.20
2023-05-21T12:42:27.670Z,22.20
2023-05-21T12:44:54.543Z,22.20
2023-05-21T12:47:23.158Z,22.20
2023-05-21T12:49:50.731Z,22.20
2023-05-21T12:52:18.795Z,22.20
2023-05-21T12:54:48.599Z,22.20
2023-05-21T12:57:15.255Z,22.20
2023-05-21T12:59:48.895Z,22.20
2023-05-21T13:02:34.382Z,22.20
2023-05-21T13:05:07.828Z,22.30
2023-05-21T13:07:35.367Z,22.20
2023-05-21T13:10:02.635Z,22.20
2023-05-21T13:12:30.044Z,22.20
2023-05-21T13:14:57.583Z,22.30
2023-05-21T13:17:24.678Z,22.30
2023-05-21T13:20:10.184Z,22.30
2023-05-21T13:22:39.094Z,22.30
2023-05-21T13:25:06.264Z,22.30
2023-05-21T13:27:32.946Z,22.40
2023-05-21T13:29:59.588Z,22.50
2023-05-21T13:32:26.402Z,22.50
2023-05-21T13:34:53.075Z,22.50
2023-05-21T13:37:20.581Z,22.50
2023-05-21T13:39:47.753Z,22.50
2023-05-21T13:42:14.448Z,22.50
2023-05-21T13:44:41.113Z,22.50
2023-05-21T13:47:08.921Z,22.60
2023-05-21T13:49:36.101Z,22.60
2023-05-21T13:52:03.594Z,22.60
2023-05-21T13:54:30.484Z,22.60
2023-05-21T13:56:57.147Z,22.60
2023-05-21T13:59:23.859Z,22.60
2023-05-21T14:01:52.268Z,22.60
2023-05-21T14:04:19.535Z,22.60
2023-05-21T14:06:46.749Z,22.60
2023-05-21T14:09:13.618Z,22.60
2023-05-21T14:11:40.534Z,22.60
2023-05-21T14:14:07.222Z,22.60
2023-05-21T14:16:33.836Z,22.60
2023-05-21T14:19:01.013Z,22.60
2023-05-21T14:21:29.430Z,22.60
2023-05-21T14:23:55.990Z,22.60
2023-05-21T14:26:22.592Z,22.60
2023-05-21T14:28:49.287Z,22.60
2023-05-21T14:31:16.053Z,22.60
2023-05-21T14:33:42.656Z,22.60
2023-05-21T14:36:09.231Z,22.60
2023-05-21T14:38:35.844Z,22.60
2023-05-21T14:41:02.959Z,22.70
2023-05-21T14:43:29.578Z,22.60
2023-05-21T14:45:56.164Z,22.60
2023-05-21T14:48:23.908Z,22.70
2023-05-21T14:50:51.357Z,22.60
2023-05-21T14:53:18.627Z,22.70
2023-05-21T14:55:45.574Z,22.70
2023-05-21T14:58:12.327Z,22.70
2023-05-21T15:00:39.045Z,22.70
2023-05-21T15:03:05.949Z,22.70
2023-05-21T15:05:33.423Z,22.70
2023-05-21T15:08:00.066Z,22.80
2023-05-21T15:10:27.455Z,22.80
2023-05-21T15:12:54.205Z,22.80
2023-05-21T15:15:21.160Z,22.80
2023-05-21T15:17:48.334Z,22.80
2023-05-21T15:20:15.170Z,22.80
2023-05-21T15:22:42.164Z,22.80
2023-05-21T15:25:09.089Z,22.80
2023-05-21T15:27:35.658Z,22.80
2023-05-21T15:30:02.578Z,22.80
2023-05-21T15:32:29.970Z,22.80
2023-05-21T15:34:56.694Z,22.80
2023-05-21T15:37:23.485Z,22.80
2023-05-21T15:39:50.161Z,22.80
2023-05-21T15:42:16.846Z,22.80
2023-05-21T15:44:43.476Z,22.80
2023-05-21T15:47:10.149Z,22.80
2023-05-21T15:49:36.811Z,22.80
2023-05-21T15:52:03.588Z,22.80
2023-05-21T15:54:30.411Z,22.80
2023-05-21T15:56:57.211Z,22.70
2023-05-21T15:59:26.134Z,22.70
2023-05-21T16:01:52.878Z,22.80
2023-05-21T16:04:22.250Z,22.70
2023-05-21T16:06:49.172Z,22.70
2023-05-21T16:09:15.832Z,22.70
2023-05-21T16:11:44.751Z,22.70
2023-05-21T16:14:11.756Z,22.80
2023-05-21T16:16:38.853Z,22.80
2023-05-21T16:19:05.698Z,22.80
2023-05-21T16:21:32.964Z,22.80
2023-05-21T16:23:59.991Z,22.80
2023-05-21T16:26:26.570Z,22.80
2023-05-21T16:28:53.268Z,22.80
2023-05-21T16:31:20.019Z,22.80
2023-05-21T16:33:46.635Z,22.80
2023-05-21T16:36:13.201Z,22.80
2023-05-21T16:38:39.935Z,22.80
2023-05-21T16:41:06.682Z,22.80
2023-05-21T16:43:33.266Z,22.80
2023-05-21T16:45:59.984Z,22.80
2023-05-21T16:48:26.650Z,22.80
2023-05-21T16:50:53.325Z,22.80
2023-05-21T16:53:20.200Z,22.80
2023-05-21T16:55:46.868Z,22.80
2023-05-21T16:58:13.620Z,22.70
2023-05-21T17:00:40.255Z,22.70
2023-05-21T17:03:07.003Z,22.80
2023-05-21T17:05:33.738Z,22.70
2023-05-21T17:08:00.455Z,22.70
2023-05-21T17:10:27.614Z,22.70
2023-05-21T17:12:54.487Z,22.70
2023-05-21T17:15:21.361Z,22.70
2023-05-21T17:17:48.018Z,22.70
2023-05-21T17:20:15.154Z,22.70
2023-05-21T17:22:41.809Z,22.70
2023-05-21T17:25:08.606Z,22.70
2023-05-21T17:27:35.499Z,22.70
2023-05-21T17:30:02.671Z,22.70
2023-05-21T17:32:29.296Z,22.70
2023-05-21T17:34:55.969Z,22.70
2023-05-21T17:37:22.582Z,22.70
2023-05-21T17:39:49.192Z,22.60
2023-05-21T17:42:17.088Z,22.60
2023-05-21T17:44:43.752Z,22.60
2023-05-21T17:47:10.442Z,22.60
2023-05-21T17:49:37.074Z,22.60
2023-05-21T17:52:04.578Z,22.60
2023-05-21T17:54:31.431Z,22.60
2023-05-21T17:56:58.130Z,22.60
2023-05-21T17:59:24.756Z,22.50
2023-05-21T18:01:51.320Z,22.50
2023-05-21T18:04:17.963Z,22.50
2023-05-21T18:06:44.712Z,22.50
2023-05-21T18:09:14.143Z,22.50
2023-05-21T18:11:42.118Z,22.50
2023-05-21T18:14:08.853Z,22.50
2023-05-21T18:16:35.619Z,22.50
2023-05-21T18:19:05.595Z,22.50
2023-05-21T18:21:33.603Z,22.50
2023-05-21T18:24:00.526Z,22.50
2023-05-21T18:26:27.198Z,22.50
2023-05-21T18:28:53.889Z,22.50
2023-05-21T18:31:20.578Z,22.50
2023-05-21T18:33:47.232Z,22.50
2023-05-21T18:36:13.939Z,22.50
2023-05-21T18:38:40.509Z,22.50
2023-05-21T18:41:07.732Z,22.50
2023-05-21T18:43:34.328Z,22.40
2023-05-21T18:46:01.144Z,22.40
2023-05-21T18:48:27.838Z,22.40
2023-05-21T18:50:54.531Z,22.40
2023-05-21T18:53:21.243Z,22.40
2023-05-21T18:55:47.827Z,22.30
2023-05-21T18:58:14.436Z,22.30
2023-05-21T19:00:42.489Z,22.40
2023-05-21T19:03:09.211Z,22.40
2023-05-21T19:05:35.980Z,22.40
2023-05-21T19:08:03.824Z,22.40
2023-05-21T19:10:30.774Z,22.40
2023-05-21T19:12:57.477Z,22.40
2023-05-21T19:15:24.079Z,22.40
2023-05-21T19:17:50.778Z,22.40
2023-05-21T19:20:24.179Z,22.30
2023-05-21T19:22:50.989Z,22.30
2023-05-21T19:25:17.660Z,22.30
2023-05-21T19:27:44.561Z,22.30
2023-05-21T19:30:11.568Z,22.30
2023-05-21T19:32:38.214Z,22.30
2023-05-21T19:35:05.597Z,22.30
2023-05-21T19:37:32.278Z,22.30
2023-05-21T19:39:58.912Z,22.30
2023-05-21T19:42:25.576Z,22.20
2023-05-21T19:44:52.253Z,22.20
2023-05-21T19:47:18.876Z,22.20
2023-05-21T19:49:45.702Z,22.20
2023-05-21T19:52:12.492Z,22.20
2023-05-21T19:54:39.299Z,22.20
2023-05-21T19:57:06.739Z,22.20
2023-05-21T19:59:33.492Z,22.20
2023-05-21T20:02:00.279Z,22.10
2023-05-21T20:04:27.207Z,22.10
2023-05-21T20:06:54.006Z,22.10
2023-05-21T20:09:20.637Z,22.10
2023-05-21T20:11:48.161Z,22.10
2023-05-21T20:14:15.005Z,22.10
2023-05-21T20:16:42.477Z,22.10
2023-05-21T20:19:10.625Z,22.10
2023-05-21T20:21:37.287Z,22.10
2023-05-21T20:24:03.972Z,22.10
2023-05-21T20:26:34.686Z,22.10
2023-05-21T20:29:01.360Z,22.00
2023-05-21T20:31:27.965Z,22.00
2023-05-21T20:33:54.631Z,22.00
2023-05-21T20:36:21.393Z,22.00
2023-05-21T20:38:48.285Z,22.00
2023-05-21T20:41:14.954Z,22.00
2023-05-21T20:43:49.612Z,22.00
2023-05-21T20:46:18.380Z,22.00
2023-05-21T20:48:45.296Z,22.00
2023-05-21T20:51:12.140Z,22.00
2023-05-21T20:53:38.738Z,22.00
2023-05-21T20:56:08.037Z,21.90
2023-05-21T20:58:34.997Z,21.90
2023-05-21T21:01:01.910Z,21.90
2023-05-21T21:03:29.850Z,21.90
2023-05-21T21:05:57.982Z,21.90
2023-05-21T21:08:24.588Z,21.90
2023-05-21T21:10:51.193Z,21.90
2023-05-21T21:13:17.761Z,21.90
2023-05-21T21:15:44.408Z,21.90
2023-05-21T21:18:12.413Z,21.90
2023-05-21T21:20:39.742Z,21.90
2023-05-21T21:23:06.502Z,21.90
2023-05-21T21:25:33.246Z,21.90
2023-05-21T21:27:59.875Z,21.90
2023-05-21T21:30:26.438Z,21.90
2023-05-21T21:32:53.188Z,21.90
2023-05-21T21:35:19.909Z,21.90
2023-05-21T21:37:46.512Z,21.90
2023-05-21T21:40:13.525Z,21.90
2023-05-21T21:42:41.700Z,21.90
2023-05-21T21:45:08.515Z,21.90
2023-05-21T21:47:35.218Z,21.90
2023-05-21T21:50:01.820Z,21.90
2023-05-21T21:52:28.455Z,21.90
2023-05-21T21:54:57.800Z,21.90
2023-05-21T21:57:27.369Z,21.90
2023-05-21T21:59:53.954Z,21.90
2023-05-21T22:02:20.790Z,21.90
2023-05-21T22:04:47.998Z,21.90
2023-05-21T22:07:17.713Z,21.80
2023-05-21T22:09:44.634Z,21.80
2023-05-21T22:12:11.885Z,21.90
2023-05-21T22:14:38.666Z,21.80
2023-05-21T22:17:08.358Z,21.80
2023-05-21T22:19:35.883Z,21.80
2023-05-21T22:22:04.041Z,21.80
2023-05-21T22:24:32.455Z,21.80
2023-05-21T22:27:00.091Z,21.80
2023-05-21T22:29:26.733Z,21.80
2023-05-21T22:31:53.402Z,21.70
2023-05-21T22:34:20.149Z,21.70
2023-05-21T22:36:46.906Z,21.70
2023-05-21T22:39:13.610Z,21.80
2023-05-21T22:41:40.413Z,21.70
2023-05-21T22:44:07.051Z,21.70
2023-05-21T22:46:35.553Z,21.70
2023-05-21T22:49:02.594Z,21.70
2023-05-21T22:51:34.839Z,21.70
2023-05-21T22:54:01.800Z,21.70
2023-05-21T22:56:28.435Z,21.70
2023-05-21T22:58:55.376Z,21.70
2023-05-21T23:01:22.247Z,21.70
2023-05-21T23:03:48.925Z,21.70
2023-05-21T23:06:15.657Z,21.70
2023-05-21T23:08:42.290Z,21.70
2023-05-21T23:11:08.938Z,21.70
2023-05-21T23:13:35.686Z,21.70
2023-05-21T23:16:03.276Z,21.70
2023-05-21T23:18:29.898Z,21.70
2023-05-21T23:20:57.122Z,21.70
2023-05-21T23:23:23.828Z,21.70
2023-05-21T23:25:52.332Z,21.70
2023-05-21T23:28:19.233Z,21.70
2023-05-21T23:30:46.464Z,21.70
2023-05-21T23:33:13.781Z,21.70
2023-05-21T23:35:40.742Z,21.70
2023-05-21T23:38:07.468Z,21.70
2023-05-21T23:40:34.147Z,21.70
2023-05-21T23:43:01.003Z,21.70
2023-05-21T23:45:27.633Z,21.70
2023-05-21T23:47:54.279Z,21.70
2023-05-21T23:50:20.944Z,21.70
2023-05-21T23:52:47.730Z,21.70
2023-05-21T23:55:14.921Z,21.70
2023-05-21T23:57:41.648Z,21.70
